Madawaska, ME (04756)

11:54 PM EST on January 18, 2017 (GMT -0500)
Dad's Station | | Change Station

Elev 807 ft 47.35 °N, 68.32 °W | Updated 11 seconds ago

Overcast
Overcast
17.1 °F
Feels Like 17 °F
N
0.0
Wind Variable Wind from SSE
Gusts 0.0 mph

Today
High -- | Low -- °F
--% Chance of Precip.
Yesterday
High -- | Low -- °F
Precip. -- in
Pressure 29.95 in
Visibility 7.0 miles
Clouds Mostly Cloudy 1400 ft
Overcast 2200 ft
Windchill 17 °F
Dew Point 8 °F
Humidity 66%
Rainfall 0.00 in
Snow Depth Not available.
7:13 AM 4:14 PM
Waning Gibbous, 57% visible
SPECI KFVE 190421Z AUTO 14010KT 7SM BKN014 OVC022 M09/M12 A2995 RMK AO2 I1000 T10891122
Pressure 29.95 in
Visibility 7.0 miles
Clouds Mostly Cloudy 1400 ft
Overcast 2200 ft
Windchill 17 °F
Dew Point 8 °F
Humidity 66%
Rainfall 0.00 in
Snow Depth Not available.
7:13 AM 4:14 PM
Waning Gibbous, 57% visible
SPECI KFVE 190421Z AUTO 14010KT 7SM BKN014 OVC022 M09/M12 A2995 RMK AO2 I1000 T10891122

Get Your Daily Forecast Email!

Thanks for signing up!

Be on the lookout for a verification email in your inbox.

You'll start receiving the daily forecast at 8 AM.

×

10-Day Weather Forecast

Almanac

Astronomy

Jan. 18, 2017 Rise Set
Actual Time
Civil Twilight
Nautical Twilight
Astronomical Twilight
Moon
Length of Visible Light
Length of Day
Tomorrow will be .
, % of the Moon is Illuminated

Today's Extremes

State Highs State Lows

Community

WunderPhotos

Upload Photos

1,962,540 photos uploaded!

WunderBlog® & News

Nearby

Air Quality

  Air Quality AQ Index Pollutant
Not available.

Snow Depth

Station Depth Elevation

Earthquake Activity

City Distance Mag. Time & Date
Minimum magnitude displayed is 2.5.

Coastal Water Temperatures

Place Temperature

Stations

Nearby Weather Stations

Station Location Temp. Windchill Dew Point Humidity Wind Precip. Elev Updated Type
                   

Watches & Warnings

There are currently no watches in effect.